sensor_id;sensor_type;location;lat;lon;timestamp;temperature;humidity
67379;DHT22;54262;44.642;-0.974;2024-02-16T00:00:27;15.60;99.90
67379;DHT22;54262;44.642;-0.974;2024-02-16T00:02:52;15.60;99.90
67379;DHT22;54262;44.642;-0.974;2024-02-16T00:05:18;15.60;99.90
67379;DHT22;54262;44.642;-0.974;2024-02-16T00:07:44;15.60;99.90
67379;DHT22;54262;44.642;-0.974;2024-02-16T00:10:10;15.60;99.90
67379;DHT22;54262;44.642;-0.974;2024-02-16T00:12:38;15.50;99.90
67379;DHT22;54262;44.642;-0.974;2024-02-16T00:15:06;15.50;99.90
67379;DHT22;54262;44.642;-0.974;2024-02-16T00:17:32;15.60;99.90
67379;DHT22;54262;44.642;-0.974;2024-02-16T00:19:59;15.60;99.90
67379;DHT22;54262;44.642;-0.974;2024-02-16T00:22:25;15.60;99.90
67379;DHT22;54262;44.642;-0.974;2024-02-16T00:24:51;15.60;99.90
67379;DHT22;54262;44.642;-0.974;2024-02-16T00:27:17;15.60;99.90
67379;DHT22;54262;44.642;-0.974;2024-02-16T00:29:45;15.60;99.90
67379;DHT22;54262;44.642;-0.974;2024-02-16T00:32:14;15.60;99.90
67379;DHT22;54262;44.642;-0.974;2024-02-16T00:34:40;15.60;99.90
67379;DHT22;54262;44.642;-0.974;2024-02-16T00:37:07;15.60;99.90
67379;DHT22;54262;44.642;-0.974;2024-02-16T00:39:37;15.70;99.90
67379;DHT22;54262;44.642;-0.974;2024-02-16T00:42:06;15.70;99.90
67379;DHT22;54262;44.642;-0.974;2024-02-16T00:44:32;15.60;99.90
67379;DHT22;54262;44.642;-0.974;2024-02-16T00:46:57;15.60;99.90
67379;DHT22;54262;44.642;-0.974;2024-02-16T00:49:23;15.60;99.90
67379;DHT22;54262;44.642;-0.974;2024-02-16T00:51:49;15.70;99.90
67379;DHT22;54262;44.642;-0.974;2024-02-16T00:54:16;15.60;99.90
67379;DHT22;54262;44.642;-0.974;2024-02-16T00:56:42;15.60;99.90
67379;DHT22;54262;44.642;-0.974;2024-02-16T00:59:08;15.60;99.90
67379;DHT22;54262;44.642;-0.974;2024-02-16T01:01:35;15.70;99.90
67379;DHT22;54262;44.642;-0.974;2024-02-16T01:04:01;15.70;99.90
67379;DHT22;54262;44.642;-0.974;2024-02-16T01:06:28;15.70;99.90
67379;DHT22;54262;44.642;-0.974;2024-02-16T01:08:53;15.70;99.90
67379;DHT22;54262;44.642;-0.974;2024-02-16T01:11:19;15.70;99.90
67379;DHT22;54262;44.642;-0.974;2024-02-16T01:13:46;15.70;99.90
67379;DHT22;54262;44.642;-0.974;2024-02-16T01:16:11;15.60;99.90
67379;DHT22;54262;44.642;-0.974;2024-02-16T01:18:37;15.70;99.90
67379;DHT22;54262;44.642;-0.974;2024-02-16T01:21:03;15.60;99.90
67379;DHT22;54262;44.642;-0.974;2024-02-16T01:23:29;15.60;99.90
67379;DHT22;54262;44.642;-0.974;2024-02-16T01:25:55;15.70;99.90
67379;DHT22;54262;44.642;-0.974;2024-02-16T01:28:21;15.80;99.90
67379;DHT22;54262;44.642;-0.974;2024-02-16T01:30:49;15.70;99.90
67379;DHT22;54262;44.642;-0.974;2024-02-16T01:33:17;15.70;99.90
67379;DHT22;54262;44.642;-0.974;2024-02-16T01:35:43;15.70;99.90
67379;DHT22;54262;44.642;-0.974;2024-02-16T01:38:09;15.80;99.90
67379;DHT22;54262;44.642;-0.974;2024-02-16T01:40:34;15.80;99.90
67379;DHT22;54262;44.642;-0.974;2024-02-16T01:43:00;15.90;99.90
67379;DHT22;54262;44.642;-0.974;2024-02-16T01:45:26;15.90;99.90
67379;DHT22;54262;44.642;-0.974;2024-02-16T01:47:54;15.90;99.90
67379;DHT22;54262;44.642;-0.974;2024-02-16T01:50:21;15.80;99.90
67379;DHT22;54262;44.642;-0.974;2024-02-16T01:52:48;15.90;99.90
67379;DHT22;54262;44.642;-0.974;2024-02-16T01:55:15;15.80;99.90
67379;DHT22;54262;44.642;-0.974;2024-02-16T01:57:45;15.80;99.90
67379;DHT22;54262;44.642;-0.974;2024-02-16T02:00:12;15.70;99.90
67379;DHT22;54262;44.642;-0.974;2024-02-16T02:02:40;15.60;99.90
67379;DHT22;54262;44.642;-0.974;2024-02-16T02:05:06;15.60;99.90
67379;DHT22;54262;44.642;-0.974;2024-02-16T02:07:32;15.60;99.90
67379;DHT22;54262;44.642;-0.974;2024-02-16T02:09:58;15.70;99.90
67379;DHT22;54262;44.642;-0.974;2024-02-16T02:12:24;15.70;99.90
67379;DHT22;54262;44.642;-0.974;2024-02-16T02:14:50;15.80;99.90
67379;DHT22;54262;44.642;-0.974;2024-02-16T02:17:17;15.70;99.90
67379;DHT22;54262;44.642;-0.974;2024-02-16T02:19:46;15.80;99.90
67379;DHT22;54262;44.642;-0.974;2024-02-16T02:22:19;15.80;99.90
67379;DHT22;54262;44.642;-0.974;2024-02-16T02:24:45;15.80;99.90
67379;DHT22;54262;44.642;-0.974;2024-02-16T02:27:12;15.80;99.90
67379;DHT22;54262;44.642;-0.974;2024-02-16T02:29:39;15.80;99.90
67379;DHT22;54262;44.642;-0.974;2024-02-16T02:32:07;15.80;99.90
67379;DHT22;54262;44.642;-0.974;2024-02-16T02:34:35;15.90;99.90
67379;DHT22;54262;44.642;-0.974;2024-02-16T02:37:03;15.90;99.90
67379;DHT22;54262;44.642;-0.974;2024-02-16T02:39:33;16.00;99.90
67379;DHT22;54262;44.642;-0.974;2024-02-16T02:41:58;15.90;99.90
67379;DHT22;54262;44.642;-0.974;2024-02-16T02:44:25;16.00;99.90
67379;DHT22;54262;44.642;-0.974;2024-02-16T02:46:51;15.90;99.90
67379;DHT22;54262;44.642;-0.974;2024-02-16T02:49:17;15.90;99.90
67379;DHT22;54262;44.642;-0.974;2024-02-16T02:51:43;15.90;99.90
67379;DHT22;54262;44.642;-0.974;2024-02-16T02:54:09;15.90;99.90
67379;DHT22;54262;44.642;-0.974;2024-02-16T02:56:34;16.00;99.90
67379;DHT22;54262;44.642;-0.974;2024-02-16T02:59:01;16.20;99.90
67379;DHT22;54262;44.642;-0.974;2024-02-16T03:01:26;16.20;99.90
67379;DHT22;54262;44.642;-0.974;2024-02-16T03:03:52;16.20;99.90
67379;DHT22;54262;44.642;-0.974;2024-02-16T03:06:19;16.20;99.90
67379;DHT22;54262;44.642;-0.974;2024-02-16T03:08:45;16.20;99.90
67379;DHT22;54262;44.642;-0.974;2024-02-16T03:11:11;16.20;99.90
67379;DHT22;54262;44.642;-0.974;2024-02-16T03:13:37;16.20;99.90
67379;DHT22;54262;44.642;-0.974;2024-02-16T03:16:03;16.20;99.90
67379;DHT22;54262;44.642;-0.974;2024-02-16T03:18:33;16.20;99.90
67379;DHT22;54262;44.642;-0.974;2024-02-16T03:20:59;16.10;99.90
67379;DHT22;54262;44.642;-0.974;2024-02-16T03:23:25;16.10;99.90
67379;DHT22;54262;44.642;-0.974;2024-02-16T03:25:51;16.20;99.90
67379;DHT22;54262;44.642;-0.974;2024-02-16T03:28:16;16.20;99.90
67379;DHT22;54262;44.642;-0.974;2024-02-16T03:30:43;16.10;99.90
67379;DHT22;54262;44.642;-0.974;2024-02-16T03:33:11;16.30;99.90
67379;DHT22;54262;44.642;-0.974;2024-02-16T03:35:39;16.30;99.90
67379;DHT22;54262;44.642;-0.974;2024-02-16T03:38:08;16.30;99.90
67379;DHT22;54262;44.642;-0.974;2024-02-16T03:40:33;16.10;99.90
67379;DHT22;54262;44.642;-0.974;2024-02-16T03:42:59;16.10;99.90
67379;DHT22;54262;44.642;-0.974;2024-02-16T03:45:25;16.10;99.90
67379;DHT22;54262;44.642;-0.974;2024-02-16T03:47:52;16.10;99.90
67379;DHT22;54262;44.642;-0.974;2024-02-16T03:50:19;16.10;99.90
67379;DHT22;54262;44.642;-0.974;2024-02-16T03:52:45;16.10;99.90
67379;DHT22;54262;44.642;-0.974;2024-02-16T03:55:10;16.10;99.90
67379;DHT22;54262;44.642;-0.974;2024-02-16T03:57:37;16.10;99.90
67379;DHT22;54262;44.642;-0.974;2024-02-16T04:00:03;16.00;99.90
67379;DHT22;54262;44.642;-0.974;2024-02-16T04:02:31;16.00;99.90
67379;DHT22;54262;44.642;-0.974;2024-02-16T04:04:57;16.00;99.90
67379;DHT22;54262;44.642;-0.974;2024-02-16T04:07:23;15.90;99.90
67379;DHT22;54262;44.642;-0.974;2024-02-16T04:09:49;16.00;99.90
67379;DHT22;54262;44.642;-0.974;2024-02-16T04:12:15;16.20;99.90
67379;DHT22;54262;44.642;-0.974;2024-02-16T04:14:41;16.10;99.90
67379;DHT22;54262;44.642;-0.974;2024-02-16T04:17:07;16.10;99.90
67379;DHT22;54262;44.642;-0.974;2024-02-16T04:19:33;16.00;99.90
67379;DHT22;54262;44.642;-0.974;2024-02-16T04:21:58;16.00;99.90
67379;DHT22;54262;44.642;-0.974;2024-02-16T04:24:24;16.10;99.90
67379;DHT22;54262;44.642;-0.974;2024-02-16T04:26:50;16.10;99.90
67379;DHT22;54262;44.642;-0.974;2024-02-16T04:29:15;16.20;99.90
67379;DHT22;54262;44.642;-0.974;2024-02-16T04:31:42;16.10;99.90
67379;DHT22;54262;44.642;-0.974;2024-02-16T04:34:10;16.10;99.90
67379;DHT22;54262;44.642;-0.974;2024-02-16T04:36:38;16.00;99.90
67379;DHT22;54262;44.642;-0.974;2024-02-16T04:39:04;16.00;99.90
67379;DHT22;54262;44.642;-0.974;2024-02-16T04:41:29;16.00;99.90
67379;DHT22;54262;44.642;-0.974;2024-02-16T04:43:55;16.10;99.90
67379;DHT22;54262;44.642;-0.974;2024-02-16T04:46:21;16.00;99.90
67379;DHT22;54262;44.642;-0.974;2024-02-16T04:48:47;16.00;99.90
67379;DHT22;54262;44.642;-0.974;2024-02-16T04:51:13;15.90;99.90
67379;DHT22;54262;44.642;-0.974;2024-02-16T04:53:39;15.90;99.90
67379;DHT22;54262;44.642;-0.974;2024-02-16T04:56:05;15.90;99.90
67379;DHT22;54262;44.642;-0.974;2024-02-16T04:58:31;15.90;99.90
67379;DHT22;54262;44.642;-0.974;2024-02-16T05:00:57;15.80;99.90
67379;DHT22;54262;44.642;-0.974;2024-02-16T05:03:23;15.80;99.90
67379;DHT22;54262;44.642;-0.974;2024-02-16T05:05:49;15.80;99.90
67379;DHT22;54262;44.642;-0.974;2024-02-16T05:08:15;15.70;99.90
67379;DHT22;54262;44.642;-0.974;2024-02-16T05:10:41;15.70;99.90
67379;DHT22;54262;44.642;-0.974;2024-02-16T05:13:06;15.70;99.90
67379;DHT22;54262;44.642;-0.974;2024-02-16T05:15:32;15.70;99.90
67379;DHT22;54262;44.642;-0.974;2024-02-16T05:17:58;15.60;99.90
67379;DHT22;54262;44.642;-0.974;2024-02-16T05:20:24;15.70;99.90
67379;DHT22;54262;44.642;-0.974;2024-02-16T05:22:50;15.60;99.90
67379;DHT22;54262;44.642;-0.974;2024-02-16T05:25:16;15.60;99.90
67379;DHT22;54262;44.642;-0.974;2024-02-16T05:27:43;15.60;99.90
67379;DHT22;54262;44.642;-0.974;2024-02-16T05:30:10;15.60;99.90
67379;DHT22;54262;44.642;-0.974;2024-02-16T05:32:38;15.50;99.90
67379;DHT22;54262;44.642;-0.974;2024-02-16T05:35:07;15.50;99.90
67379;DHT22;54262;44.642;-0.974;2024-02-16T05:37:44;15.40;99.90
67379;DHT22;54262;44.642;-0.974;2024-02-16T05:40:13;15.40;99.90
67379;DHT22;54262;44.642;-0.974;2024-02-16T05:42:51;15.50;99.90
67379;DHT22;54262;44.642;-0.974;2024-02-16T05:45:17;15.40;99.90
67379;DHT22;54262;44.642;-0.974;2024-02-16T05:47:44;15.40;99.90
67379;DHT22;54262;44.642;-0.974;2024-02-16T05:50:11;15.40;99.90
67379;DHT22;54262;44.642;-0.974;2024-02-16T05:52:38;15.40;99.90
67379;DHT22;54262;44.642;-0.974;2024-02-16T05:55:05;15.30;99.90
67379;DHT22;54262;44.642;-0.974;2024-02-16T05:57:31;15.30;99.90
67379;DHT22;54262;44.642;-0.974;2024-02-16T05:59:56;15.40;99.90
67379;DHT22;54262;44.642;-0.974;2024-02-16T06:02:23;15.30;99.90
67379;DHT22;54262;44.642;-0.974;2024-02-16T06:04:51;15.20;99.90
67379;DHT22;54262;44.642;-0.974;2024-02-16T06:07:17;15.20;99.90
67379;DHT22;54262;44.642;-0.974;2024-02-16T06:09:43;15.20;99.90
67379;DHT22;54262;44.642;-0.974;2024-02-16T06:12:09;15.20;99.90
67379;DHT22;54262;44.642;-0.974;2024-02-16T06:14:35;15.00;99.90
67379;DHT22;54262;44.642;-0.974;2024-02-16T06:17:02;15.00;99.90
67379;DHT22;54262;44.642;-0.974;2024-02-16T06:19:28;15.00;99.90
67379;DHT22;54262;44.642;-0.974;2024-02-16T06:21:54;15.00;99.90
67379;DHT22;54262;44.642;-0.974;2024-02-16T06:24:23;15.10;99.90
67379;DHT22;54262;44.642;-0.974;2024-02-16T06:26:49;15.10;99.90
67379;DHT22;54262;44.642;-0.974;2024-02-16T06:29:18;15.00;99.90
67379;DHT22;54262;44.642;-0.974;2024-02-16T06:31:47;15.00;99.90
67379;DHT22;54262;44.642;-0.974;2024-02-16T06:34:14;15.00;99.90
67379;DHT22;54262;44.642;-0.974;2024-02-16T06:36:42;14.90;99.90
67379;DHT22;54262;44.642;-0.974;2024-02-16T06:39:10;14.90;99.90
67379;DHT22;54262;44.642;-0.974;2024-02-16T06:41:36;14.90;99.90
67379;DHT22;54262;44.642;-0.974;2024-02-16T06:44:04;14.80;99.90
67379;DHT22;54262;44.642;-0.974;2024-02-16T06:46:29;14.80;99.90
67379;DHT22;54262;44.642;-0.974;2024-02-16T06:48:55;14.80;99.90
67379;DHT22;54262;44.642;-0.974;2024-02-16T06:51:24;14.80;99.90
67379;DHT22;54262;44.642;-0.974;2024-02-16T06:53:52;14.80;99.90
67379;DHT22;54262;44.642;-0.974;2024-02-16T06:56:18;14.80;99.90
67379;DHT22;54262;44.642;-0.974;2024-02-16T06:58:45;14.80;99.90
67379;DHT22;54262;44.642;-0.974;2024-02-16T07:01:12;14.80;99.90
67379;DHT22;54262;44.642;-0.974;2024-02-16T07:03:38;14.80;99.90
67379;DHT22;54262;44.642;-0.974;2024-02-16T07:06:04;14.90;99.90
67379;DHT22;54262;44.642;-0.974;2024-02-16T07:08:33;14.80;99.90
67379;DHT22;54262;44.642;-0.974;2024-02-16T07:10:58;14.80;99.90
67379;DHT22;54262;44.642;-0.974;2024-02-16T07:13:24;14.80;99.90
67379;DHT22;54262;44.642;-0.974;2024-02-16T07:15:50;14.80;99.90
67379;DHT22;54262;44.642;-0.974;2024-02-16T07:18:16;14.90;99.90
67379;DHT22;54262;44.642;-0.974;2024-02-16T07:20:42;14.90;99.90
67379;DHT22;54262;44.642;-0.974;2024-02-16T07:23:07;14.90;99.90
67379;DHT22;54262;44.642;-0.974;2024-02-16T07:25:35;14.80;99.90
67379;DHT22;54262;44.642;-0.974;2024-02-16T07:28:00;14.80;99.90
67379;DHT22;54262;44.642;-0.974;2024-02-16T07:30:26;14.80;99.90
67379;DHT22;54262;44.642;-0.974;2024-02-16T07:32:52;14.80;99.90
67379;DHT22;54262;44.642;-0.974;2024-02-16T07:35:18;14.80;99.90
67379;DHT22;54262;44.642;-0.974;2024-02-16T07:37:46;14.80;99.90
67379;DHT22;54262;44.642;-0.974;2024-02-16T07:40:15;14.80;99.90
67379;DHT22;54262;44.642;-0.974;2024-02-16T07:42:41;14.80;99.90
67379;DHT22;54262;44.642;-0.974;2024-02-16T07:45:08;14.70;99.90
67379;DHT22;54262;44.642;-0.974;2024-02-16T07:47:35;14.70;99.90
67379;DHT22;54262;44.642;-0.974;2024-02-16T07:50:01;14.60;99.90
67379;DHT22;54262;44.642;-0.974;2024-02-16T07:52:26;14.60;99.90
67379;DHT22;54262;44.642;-0.974;2024-02-16T07:54:52;14.80;99.90
67379;DHT22;54262;44.642;-0.974;2024-02-16T07:57:18;14.80;99.90
67379;DHT22;54262;44.642;-0.974;2024-02-16T07:59:43;14.80;99.90
67379;DHT22;54262;44.642;-0.974;2024-02-16T08:02:09;14.90;99.90
67379;DHT22;54262;44.642;-0.974;2024-02-16T08:04:35;15.00;99.90
67379;DHT22;54262;44.642;-0.974;2024-02-16T08:07:01;15.00;99.90
67379;DHT22;54262;44.642;-0.974;2024-02-16T08:09:27;16.00;99.90
67379;DHT22;54262;44.642;-0.974;2024-02-16T08:11:53;17.10;99.90
67379;DHT22;54262;44.642;-0.974;2024-02-16T08:14:18;16.60;99.90
67379;DHT22;54262;44.642;-0.974;2024-02-16T08:16:44;17.50;99.90
67379;DHT22;54262;44.642;-0.974;2024-02-16T08:19:11;17.80;99.90
67379;DHT22;54262;44.642;-0.974;2024-02-16T08:21:39;17.80;99.90
67379;DHT22;54262;44.642;-0.974;2024-02-16T08:24:05;17.20;99.90
67379;DHT22;54262;44.642;-0.974;2024-02-16T08:26:31;15.40;99.90
67379;DHT22;54262;44.642;-0.974;2024-02-16T08:28:57;15.60;99.90
67379;DHT22;54262;44.642;-0.974;2024-02-16T08:31:25;16.60;99.90
67379;DHT22;54262;44.642;-0.974;2024-02-16T08:33:51;16.80;99.90
67379;DHT22;54262;44.642;-0.974;2024-02-16T08:36:16;15.60;99.90
67379;DHT22;54262;44.642;-0.974;2024-02-16T08:38:44;15.50;99.90
67379;DHT22;54262;44.642;-0.974;2024-02-16T08:41:12;16.20;99.90
67379;DHT22;54262;44.642;-0.974;2024-02-16T08:43:38;18.00;99.90
67379;DHT22;54262;44.642;-0.974;2024-02-16T08:46:04;17.00;99.90
67379;DHT22;54262;44.642;-0.974;2024-02-16T08:48:30;16.90;99.90
67379;DHT22;54262;44.642;-0.974;2024-02-16T08:50:56;17.50;99.90
67379;DHT22;54262;44.642;-0.974;2024-02-16T08:53:22;18.00;99.90
67379;DHT22;54262;44.642;-0.974;2024-02-16T08:55:48;19.10;99.90
67379;DHT22;54262;44.642;-0.974;2024-02-16T08:58:13;18.20;99.90
67379;DHT22;54262;44.642;-0.974;2024-02-16T09:00:39;17.90;99.90
67379;DHT22;54262;44.642;-0.974;2024-02-16T09:03:05;18.70;99.90
67379;DHT22;54262;44.642;-0.974;2024-02-16T09:05:31;17.70;99.90
67379;DHT22;54262;44.642;-0.974;2024-02-16T09:07:57;19.00;99.90
67379;DHT22;54262;44.642;-0.974;2024-02-16T09:10:23;17.10;99.90
67379;DHT22;54262;44.642;-0.974;2024-02-16T09:12:48;16.50;99.90
67379;DHT22;54262;44.642;-0.974;2024-02-16T09:15:14;18.30;99.90
67379;DHT22;54262;44.642;-0.974;2024-02-16T09:17:40;15.90;99.90
67379;DHT22;54262;44.642;-0.974;2024-02-16T09:20:07;18.30;99.90
67379;DHT22;54262;44.642;-0.974;2024-02-16T09:22:33;18.30;99.90
67379;DHT22;54262;44.642;-0.974;2024-02-16T09:24:59;17.10;99.90
67379;DHT22;54262;44.642;-0.974;2024-02-16T09:27:25;18.90;99.90
67379;DHT22;54262;44.642;-0.974;2024-02-16T09:29:51;18.80;99.90
67379;DHT22;54262;44.642;-0.974;2024-02-16T09:32:18;17.10;99.90
67379;DHT22;54262;44.642;-0.974;2024-02-16T09:34:43;17.90;99.90
67379;DHT22;54262;44.642;-0.974;2024-02-16T09:37:09;19.10;99.90
67379;DHT22;54262;44.642;-0.974;2024-02-16T09:39:37;18.30;99.90
67379;DHT22;54262;44.642;-0.974;2024-02-16T09:42:05;19.30;99.90
67379;DHT22;54262;44.642;-0.974;2024-02-16T09:44:30;19.30;99.90
67379;DHT22;54262;44.642;-0.974;2024-02-16T09:46:59;19.20;99.90
67379;DHT22;54262;44.642;-0.974;2024-02-16T09:49:27;17.50;99.90
67379;DHT22;54262;44.642;-0.974;2024-02-16T09:51:53;16.30;99.90
67379;DHT22;54262;44.642;-0.974;2024-02-16T09:54:20;17.50;99.90
67379;DHT22;54262;44.642;-0.974;2024-02-16T09:56:46;18.20;99.90
67379;DHT22;54262;44.642;-0.974;2024-02-16T09:59:12;17.20;99.90
67379;DHT22;54262;44.642;-0.974;2024-02-16T10:01:38;19.20;99.90
67379;DHT22;54262;44.642;-0.974;2024-02-16T10:04:07;18.70;99.90
67379;DHT22;54262;44.642;-0.974;2024-02-16T10:06:48;17.50;99.90
67379;DHT22;54262;44.642;-0.974;2024-02-16T10:09:23;19.20;99.90
67379;DHT22;54262;44.642;-0.974;2024-02-16T10:11:49;18.20;99.90
67379;DHT22;54262;44.642;-0.974;2024-02-16T10:14:14;19.10;99.90
67379;DHT22;54262;44.642;-0.974;2024-02-16T10:16:40;20.00;99.90
67379;DHT22;54262;44.642;-0.974;2024-02-16T10:19:07;18.70;99.90
67379;DHT22;54262;44.642;-0.974;2024-02-16T10:21:35;20.30;99.90
67379;DHT22;54262;44.642;-0.974;2024-02-16T10:24:02;18.70;99.90
67379;DHT22;54262;44.642;-0.974;2024-02-16T10:26:28;20.40;99.90
67379;DHT22;54262;44.642;-0.974;2024-02-16T10:28:56;20.10;99.90
67379;DHT22;54262;44.642;-0.974;2024-02-16T10:31:25;19.20;99.90
67379;DHT22;54262;44.642;-0.974;2024-02-16T10:34:00;20.20;99.90
67379;DHT22;54262;44.642;-0.974;2024-02-16T10:36:27;20.40;99.90
67379;DHT22;54262;44.642;-0.974;2024-02-16T10:38:54;19.60;99.90
67379;DHT22;54262;44.642;-0.974;2024-02-16T10:41:27;19.00;99.90
67379;DHT22;54262;44.642;-0.974;2024-02-16T10:43:58;20.10;99.90
67379;DHT22;54262;44.642;-0.974;2024-02-16T10:46:24;20.10;99.90
67379;DHT22;54262;44.642;-0.974;2024-02-16T10:48:50;20.70;99.90
67379;DHT22;54262;44.642;-0.974;2024-02-16T10:51:34;21.20;99.90
67379;DHT22;54262;44.642;-0.974;2024-02-16T10:54:00;21.70;99.90
67379;DHT22;54262;44.642;-0.974;2024-02-16T10:56:37;21.20;99.90
67379;DHT22;54262;44.642;-0.974;2024-02-16T10:59:10;20.20;99.90
67379;DHT22;54262;44.642;-0.974;2024-02-16T11:01:43;20.10;99.90
67379;DHT22;54262;44.642;-0.974;2024-02-16T11:04:13;21.10;99.90
67379;DHT22;54262;44.642;-0.974;2024-02-16T11:06:48;19.50;99.90
67379;DHT22;54262;44.642;-0.974;2024-02-16T11:09:44;19.70;99.90
67379;DHT22;54262;44.642;-0.974;2024-02-16T11:12:13;21.00;99.90
67379;DHT22;54262;44.642;-0.974;2024-02-16T11:14:43;19.20;99.90
67379;DHT22;54262;44.642;-0.974;2024-02-16T11:17:20;20.60;99.90
67379;DHT22;54262;44.642;-0.974;2024-02-16T11:19:47;19.70;99.90
67379;DHT22;54262;44.642;-0.974;2024-02-16T11:22:20;21.20;99.90
67379;DHT22;54262;44.642;-0.974;2024-02-16T11:24:50;20.40;99.90
67379;DHT22;54262;44.642;-0.974;2024-02-16T11:27:18;20.10;99.90
67379;DHT22;54262;44.642;-0.974;2024-02-16T11:29:48;20.10;99.90
67379;DHT22;54262;44.642;-0.974;2024-02-16T11:32:14;20.40;99.90
67379;DHT22;54262;44.642;-0.974;2024-02-16T11:34:40;20.50;99.90
67379;DHT22;54262;44.642;-0.974;2024-02-16T11:37:06;20.50;99.90
67379;DHT22;54262;44.642;-0.974;2024-02-16T11:39:32;20.70;99.90
67379;DHT22;54262;44.642;-0.974;2024-02-16T11:42:04;20.40;99.90
67379;DHT22;54262;44.642;-0.974;2024-02-16T11:44:39;20.50;99.90
67379;DHT22;54262;44.642;-0.974;2024-02-16T11:47:06;20.40;99.90
67379;DHT22;54262;44.642;-0.974;2024-02-16T11:49:40;20.30;99.90
67379;DHT22;54262;44.642;-0.974;2024-02-16T11:52:07;20.10;99.90
67379;DHT22;54262;44.642;-0.974;2024-02-16T11:54:33;20.10;99.90
67379;DHT22;54262;44.642;-0.974;2024-02-16T11:56:59;20.10;99.90
67379;DHT22;54262;44.642;-0.974;2024-02-16T11:59:25;20.40;99.90
67379;DHT22;54262;44.642;-0.974;2024-02-16T12:01:53;20.50;99.90
67379;DHT22;54262;44.642;-0.974;2024-02-16T12:07:00;20.60;99.90
67379;DHT22;54262;44.642;-0.974;2024-02-16T12:09:26;20.50;99.90
67379;DHT22;54262;44.642;-0.974;2024-02-16T12:11:53;20.60;99.90
67379;DHT22;54262;44.642;-0.974;2024-02-16T12:14:22;20.60;99.90
67379;DHT22;54262;44.642;-0.974;2024-02-16T12:16:52;20.40;99.90
67379;DHT22;54262;44.642;-0.974;2024-02-16T12:19:20;20.50;99.90
67379;DHT22;54262;44.642;-0.974;2024-02-16T12:21:54;20.40;99.90
67379;DHT22;54262;44.642;-0.974;2024-02-16T12:24:21;20.40;99.90
67379;DHT22;54262;44.642;-0.974;2024-02-16T12:26:47;20.20;99.90
67379;DHT22;54262;44.642;-0.974;2024-02-16T12:29:13;20.10;99.90
67379;DHT22;54262;44.642;-0.974;2024-02-16T12:31:43;19.90;99.90
67379;DHT22;54262;44.642;-0.974;2024-02-16T12:34:09;19.50;99.90
67379;DHT22;54262;44.642;-0.974;2024-02-16T12:36:36;19.20;99.90
67379;DHT22;54262;44.642;-0.974;2024-02-16T12:39:04;19.40;99.90
67379;DHT22;54262;44.642;-0.974;2024-02-16T12:41:38;19.20;99.90
67379;DHT22;54262;44.642;-0.974;2024-02-16T12:44:06;18.90;99.90
67379;DHT22;54262;44.642;-0.974;2024-02-16T12:46:35;18.80;99.90
67379;DHT22;54262;44.642;-0.974;2024-02-16T12:49:00;19.00;99.90
67379;DHT22;54262;44.642;-0.974;2024-02-16T12:51:26;18.80;99.90
67379;DHT22;54262;44.642;-0.974;2024-02-16T12:53:52;18.90;99.90
67379;DHT22;54262;44.642;-0.974;2024-02-16T12:56:18;18.70;99.90
67379;DHT22;54262;44.642;-0.974;2024-02-16T12:58:44;18.60;99.90
67379;DHT22;54262;44.642;-0.974;2024-02-16T13:01:10;18.10;99.90
67379;DHT22;54262;44.642;-0.974;2024-02-16T13:03:37;17.90;99.90
67379;DHT22;54262;44.642;-0.974;2024-02-16T13:06:03;17.90;99.90
67379;DHT22;54262;44.642;-0.974;2024-02-16T13:08:30;17.90;99.90
67379;DHT22;54262;44.642;-0.974;2024-02-16T13:10:58;18.00;99.90
67379;DHT22;54262;44.642;-0.974;2024-02-16T13:13:24;17.80;99.90
67379;DHT22;54262;44.642;-0.974;2024-02-16T13:15:50;17.90;99.90
67379;DHT22;54262;44.642;-0.974;2024-02-16T13:18:16;17.70;99.90
67379;DHT22;54262;44.642;-0.974;2024-02-16T13:20:43;17.50;99.90
67379;DHT22;54262;44.642;-0.974;2024-02-16T13:23:09;17.80;99.90
67379;DHT22;54262;44.642;-0.974;2024-02-16T13:25:35;18.40;99.90
67379;DHT22;54262;44.642;-0.974;2024-02-16T13:28:01;17.90;99.90
67379;DHT22;54262;44.642;-0.974;2024-02-16T13:30:27;18.20;99.90
67379;DHT22;54262;44.642;-0.974;2024-02-16T13:32:53;18.30;99.90
67379;DHT22;54262;44.642;-0.974;2024-02-16T13:35:19;18.30;99.90
67379;DHT22;54262;44.642;-0.974;2024-02-16T13:37:45;18.20;99.90
67379;DHT22;54262;44.642;-0.974;2024-02-16T13:40:11;17.90;99.90
67379;DHT22;54262;44.642;-0.974;2024-02-16T13:42:40;17.80;99.90
67379;DHT22;54262;44.642;-0.974;2024-02-16T13:45:08;17.70;99.90
67379;DHT22;54262;44.642;-0.974;2024-02-16T13:47:37;17.70;99.90
67379;DHT22;54262;44.642;-0.974;2024-02-16T13:50:06;17.70;99.90
67379;DHT22;54262;44.642;-0.974;2024-02-16T13:52:32;17.60;99.90
67379;DHT22;54262;44.642;-0.974;2024-02-16T13:54:59;18.10;99.90
67379;DHT22;54262;44.642;-0.974;2024-02-16T13:57:25;18.70;99.90
67379;DHT22;54262;44.642;-0.974;2024-02-16T13:59:51;18.60;99.90
67379;DHT22;54262;44.642;-0.974;2024-02-16T14:02:17;18.80;99.90
67379;DHT22;54262;44.642;-0.974;2024-02-16T14:04:42;18.50;99.90
67379;DHT22;54262;44.642;-0.974;2024-02-16T14:07:08;18.50;99.90
67379;DHT22;54262;44.642;-0.974;2024-02-16T14:09:35;18.80;99.90
67379;DHT22;54262;44.642;-0.974;2024-02-16T14:12:01;19.00;99.90
67379;DHT22;54262;44.642;-0.974;2024-02-16T14:14:27;19.20;99.90
67379;DHT22;54262;44.642;-0.974;2024-02-16T14:16:53;19.30;99.90
67379;DHT22;54262;44.642;-0.974;2024-02-16T14:19:18;19.40;99.90
67379;DHT22;54262;44.642;-0.974;2024-02-16T14:21:44;19.60;99.90
67379;DHT22;54262;44.642;-0.974;2024-02-16T14:24:11;19.20;99.90
67379;DHT22;54262;44.642;-0.974;2024-02-16T14:26:37;19.30;99.90
67379;DHT22;54262;44.642;-0.974;2024-02-16T14:29:04;18.90;99.90
67379;DHT22;54262;44.642;-0.974;2024-02-16T14:31:30;18.70;99.90
67379;DHT22;54262;44.642;-0.974;2024-02-16T14:33:55;18.80;99.90
67379;DHT22;54262;44.642;-0.974;2024-02-16T14:36:21;18.80;99.90
67379;DHT22;54262;44.642;-0.974;2024-02-16T14:38:47;18.70;99.90
67379;DHT22;54262;44.642;-0.974;2024-02-16T14:41:13;18.70;99.90
67379;DHT22;54262;44.642;-0.974;2024-02-16T14:43:41;18.50;99.90
67379;DHT22;54262;44.642;-0.974;2024-02-16T14:46:09;18.40;99.90
67379;DHT22;54262;44.642;-0.974;2024-02-16T14:48:37;18.30;99.90
67379;DHT22;54262;44.642;-0.974;2024-02-16T14:51:03;18.60;99.90
67379;DHT22;54262;44.642;-0.974;2024-02-16T14:53:28;18.90;99.90
67379;DHT22;54262;44.642;-0.974;2024-02-16T14:55:59;19.00;99.90
67379;DHT22;54262;44.642;-0.974;2024-02-16T14:58:24;18.80;99.90
67379;DHT22;54262;44.642;-0.974;2024-02-16T15:00:51;18.70;99.90
67379;DHT22;54262;44.642;-0.974;2024-02-16T15:03:16;19.00;99.90
67379;DHT22;54262;44.642;-0.974;2024-02-16T15:05:44;18.90;99.90
67379;DHT22;54262;44.642;-0.974;2024-02-16T15:08:10;19.10;99.90
67379;DHT22;54262;44.642;-0.974;2024-02-16T15:10:36;18.90;99.90
67379;DHT22;54262;44.642;-0.974;2024-02-16T15:13:01;18.90;99.90
67379;DHT22;54262;44.642;-0.974;2024-02-16T15:15:27;18.90;99.90